sensor_id;sensor_type;location;lat;lon;timestamp;P1;durP1;ratioP1;P2;durP2;ratioP2
3967;SDS011;9221;42.646;23.380;2024-03-23T00:56:10;11.90;;;3.50;;
3967;SDS011;9221;42.646;23.380;2024-03-23T00:58:35;8.30;;;3.13;;
3967;SDS011;9221;42.646;23.380;2024-03-23T01:01:00;11.80;;;3.20;;
3967;SDS011;9221;42.646;23.380;2024-03-23T01:03:28;6.40;;;2.70;;
3967;SDS011;9221;42.646;23.380;2024-03-23T01:05:54;7.90;;;2.40;;
3967;SDS011;9221;42.646;23.380;2024-03-23T01:08:19;7.30;;;3.07;;
3967;SDS011;9221;42.646;23.380;2024-03-23T01:10:58;16.10;;;4.00;;
3967;SDS011;9221;42.646;23.380;2024-03-23T01:13:24;8.73;;;3.37;;
3967;SDS011;9221;42.646;23.380;2024-03-23T01:15:50;9.60;;;3.43;;
3967;SDS011;9221;42.646;23.380;2024-03-23T01:18:17;6.40;;;2.50;;
3967;SDS011;9221;42.646;23.380;2024-03-23T01:20:43;8.60;;;3.30;;
3967;SDS011;9221;42.646;23.380;2024-03-23T01:23:08;9.67;;;3.20;;
3967;SDS011;9221;42.646;23.380;2024-03-23T01:25:34;9.40;;;3.10;;
3967;SDS011;9221;42.646;23.380;2024-03-23T01:27:59;7.80;;;3.03;;
3967;SDS011;9221;42.646;23.380;2024-03-23T01:30:24;6.73;;;2.70;;
3967;SDS011;9221;42.646;23.380;2024-03-23T01:32:50;9.63;;;3.67;;
3967;SDS011;9221;42.646;23.380;2024-03-23T01:35:15;8.50;;;2.60;;
3967;SDS011;9221;42.646;23.380;2024-03-23T01:37:41;7.37;;;2.37;;
3967;SDS011;9221;42.646;23.380;2024-03-23T01:40:06;10.03;;;2.50;;
3967;SDS011;9221;42.646;23.380;2024-03-23T01:42:32;16.33;;;3.67;;
3967;SDS011;9221;42.646;23.380;2024-03-23T01:44:58;10.43;;;3.00;;
3967;SDS011;9221;42.646;23.380;2024-03-23T01:47:24;8.63;;;3.07;;
3967;SDS011;9221;42.646;23.380;2024-03-23T01:49:49;8.40;;;3.60;;
3967;SDS011;9221;42.646;23.380;2024-03-23T01:52:15;8.80;;;4.00;;
3967;SDS011;9221;42.646;23.380;2024-03-23T01:54:40;13.90;;;3.50;;
3967;SDS011;9221;42.646;23.380;2024-03-23T01:57:06;12.37;;;3.97;;
3967;SDS011;9221;42.646;23.380;2024-03-23T01:59:31;12.30;;;3.63;;
3967;SDS011;9221;42.646;23.380;2024-03-23T02:01:57;8.90;;;3.53;;
3967;SDS011;9221;42.646;23.380;2024-03-23T02:04:23;9.77;;;3.27;;
3967;SDS011;9221;42.646;23.380;2024-03-23T02:06:48;9.13;;;3.60;;
3967;SDS011;9221;42.646;23.380;2024-03-23T02:09:14;9.93;;;2.60;;
3967;SDS011;9221;42.646;23.380;2024-03-23T02:11:40;10.80;;;2.90;;
3967;SDS011;9221;42.646;23.380;2024-03-23T02:14:06;9.57;;;3.17;;
3967;SDS011;9221;42.646;23.380;2024-03-23T02:16:32;8.80;;;3.57;;
3967;SDS011;9221;42.646;23.380;2024-03-23T02:18:58;8.40;;;2.80;;
3967;SDS011;9221;42.646;23.380;2024-03-23T02:21:24;10.63;;;3.37;;
3967;SDS011;9221;42.646;23.380;2024-03-23T02:23:49;7.67;;;3.00;;
3967;SDS011;9221;42.646;23.380;2024-03-23T02:26:15;9.57;;;3.47;;
3967;SDS011;9221;42.646;23.380;2024-03-23T02:28:41;13.20;;;3.80;;
3967;SDS011;9221;42.646;23.380;2024-03-23T02:31:07;12.47;;;4.43;;
3967;SDS011;9221;42.646;23.380;2024-03-23T02:33:32;10.33;;;3.50;;
3967;SDS011;9221;42.646;23.380;2024-03-23T02:35:59;12.23;;;4.20;;
3967;SDS011;9221;42.646;23.380;2024-03-23T02:38:24;10.57;;;3.60;;
3967;SDS011;9221;42.646;23.380;2024-03-23T02:40:50;11.23;;;3.80;;
3967;SDS011;9221;42.646;23.380;2024-03-23T02:43:15;7.30;;;3.20;;
3967;SDS011;9221;42.646;23.380;2024-03-23T02:45:41;14.83;;;4.07;;
3967;SDS011;9221;42.646;23.380;2024-03-23T02:48:07;16.63;;;4.60;;
3967;SDS011;9221;42.646;23.380;2024-03-23T02:50:32;8.93;;;3.50;;
3967;SDS011;9221;42.646;23.380;2024-03-23T02:52:58;12.30;;;3.20;;
3967;SDS011;9221;42.646;23.380;2024-03-23T02:55:24;10.00;;;3.30;;
3967;SDS011;9221;42.646;23.380;2024-03-23T02:57:49;13.60;;;3.13;;
3967;SDS011;9221;42.646;23.380;2024-03-23T03:00:15;5.83;;;2.50;;
3967;SDS011;9221;42.646;23.380;2024-03-23T03:02:41;10.10;;;3.00;;
3967;SDS011;9221;42.646;23.380;2024-03-23T03:05:06;9.40;;;3.00;;
3967;SDS011;9221;42.646;23.380;2024-03-23T03:07:33;8.60;;;2.73;;
3967;SDS011;9221;42.646;23.380;2024-03-23T03:09:59;7.00;;;2.60;;
3967;SDS011;9221;42.646;23.380;2024-03-23T03:12:25;9.27;;;3.50;;
3967;SDS011;9221;42.646;23.380;2024-03-23T03:14:50;15.57;;;3.23;;
3967;SDS011;9221;42.646;23.380;2024-03-23T03:17:16;8.07;;;3.10;;
3967;SDS011;9221;42.646;23.380;2024-03-23T03:19:41;7.77;;;2.63;;
3967;SDS011;9221;42.646;23.380;2024-03-23T03:22:07;5.00;;;2.10;;
3967;SDS011;9221;42.646;23.380;2024-03-23T03:24:32;11.53;;;3.13;;
3967;SDS011;9221;42.646;23.380;2024-03-23T03:26:58;9.17;;;2.90;;
3967;SDS011;9221;42.646;23.380;2024-03-23T03:29:23;10.30;;;3.27;;
3967;SDS011;9221;42.646;23.380;2024-03-23T03:31:49;4.77;;;2.30;;
3967;SDS011;9221;42.646;23.380;2024-03-23T03:34:15;6.97;;;2.70;;
3967;SDS011;9221;42.646;23.380;2024-03-23T03:36:41;7.87;;;3.17;;
3967;SDS011;9221;42.646;23.380;2024-03-23T03:39:06;7.97;;;2.43;;
3967;SDS011;9221;42.646;23.380;2024-03-23T03:41:32;6.90;;;2.70;;
3967;SDS011;9221;42.646;23.380;2024-03-23T03:43:57;6.47;;;2.50;;
3967;SDS011;9221;42.646;23.380;2024-03-23T03:46:27;8.70;;;2.50;;
3967;SDS011;9221;42.646;23.380;2024-03-23T03:48:56;7.33;;;2.07;;
3967;SDS011;9221;42.646;23.380;2024-03-23T03:51:22;12.17;;;3.50;;
3967;SDS011;9221;42.646;23.380;2024-03-23T03:53:47;7.20;;;3.00;;
3967;SDS011;9221;42.646;23.380;2024-03-23T03:56:13;7.67;;;2.27;;
3967;SDS011;9221;42.646;23.380;2024-03-23T03:58:38;7.30;;;2.40;;
3967;SDS011;9221;42.646;23.380;2024-03-23T04:01:05;7.57;;;2.33;;
3967;SDS011;9221;42.646;23.380;2024-03-23T04:03:30;6.93;;;2.47;;
3967;SDS011;9221;42.646;23.380;2024-03-23T04:05:56;9.30;;;3.00;;
3967;SDS011;9221;42.646;23.380;2024-03-23T04:08:21;8.57;;;2.77;;
3967;SDS011;9221;42.646;23.380;2024-03-23T04:10:47;8.53;;;3.10;;
3967;SDS011;9221;42.646;23.380;2024-03-23T04:13:13;15.80;;;3.97;;
3967;SDS011;9221;42.646;23.380;2024-03-23T04:15:39;7.87;;;3.07;;
3967;SDS011;9221;42.646;23.380;2024-03-23T04:18:04;7.83;;;2.80;;
3967;SDS011;9221;42.646;23.380;2024-03-23T04:20:30;12.67;;;2.90;;
3967;SDS011;9221;42.646;23.380;2024-03-23T04:22:57;7.90;;;2.33;;
3967;SDS011;9221;42.646;23.380;2024-03-23T04:25:23;11.57;;;3.50;;
3967;SDS011;9221;42.646;23.380;2024-03-23T04:27:48;15.23;;;3.37;;
3967;SDS011;9221;42.646;23.380;2024-03-23T04:30:14;11.53;;;3.00;;
3967;SDS011;9221;42.646;23.380;2024-03-23T04:32:40;6.30;;;3.07;;
3967;SDS011;9221;42.646;23.380;2024-03-23T04:35:07;7.37;;;2.90;;
3967;SDS011;9221;42.646;23.380;2024-03-23T04:37:35;15.07;;;4.10;;
3967;SDS011;9221;42.646;23.380;2024-03-23T04:40:05;8.73;;;2.77;;
3967;SDS011;9221;42.646;23.380;2024-03-23T04:42:32;9.80;;;3.47;;
3967;SDS011;9221;42.646;23.380;2024-03-23T04:44:58;9.20;;;2.83;;
3967;SDS011;9221;42.646;23.380;2024-03-23T04:47:24;11.40;;;2.87;;
3967;SDS011;9221;42.646;23.380;2024-03-23T04:49:49;10.30;;;3.13;;
3967;SDS011;9221;42.646;23.380;2024-03-23T04:52:18;8.47;;;3.13;;
3967;SDS011;9221;42.646;23.380;2024-03-23T04:54:44;8.40;;;3.33;;
3967;SDS011;9221;42.646;23.380;2024-03-23T04:57:10;7.90;;;3.13;;
3967;SDS011;9221;42.646;23.380;2024-03-23T04:59:36;13.00;;;3.03;;
3967;SDS011;9221;42.646;23.380;2024-03-23T05:02:01;5.13;;;2.00;;
3967;SDS011;9221;42.646;23.380;2024-03-23T05:04:27;9.73;;;3.23;;
3967;SDS011;9221;42.646;23.380;2024-03-23T05:06:53;8.60;;;3.43;;
3967;SDS011;9221;42.646;23.380;2024-03-23T05:09:19;10.50;;;3.90;;
3967;SDS011;9221;42.646;23.380;2024-03-23T05:11:45;10.90;;;3.40;;
3967;SDS011;9221;42.646;23.380;2024-03-23T05:14:11;12.97;;;3.90;;
3967;SDS011;9221;42.646;23.380;2024-03-23T05:16:38;18.37;;;3.63;;
3967;SDS011;9221;42.646;23.380;2024-03-23T05:19:03;15.27;;;3.57;;
3967;SDS011;9221;42.646;23.380;2024-03-23T05:21:29;13.17;;;4.40;;
3967;SDS011;9221;42.646;23.380;2024-03-23T05:23:55;10.03;;;3.80;;
3967;SDS011;9221;42.646;23.380;2024-03-23T05:26:21;11.27;;;4.00;;
3967;SDS011;9221;42.646;23.380;2024-03-23T05:28:47;17.80;;;3.60;;
3967;SDS011;9221;42.646;23.380;2024-03-23T05:31:22;10.50;;;3.40;;
3967;SDS011;9221;42.646;23.380;2024-03-23T05:33:48;19.40;;;4.93;;
3967;SDS011;9221;42.646;23.380;2024-03-23T05:36:14;10.30;;;3.57;;
3967;SDS011;9221;42.646;23.380;2024-03-23T05:38:39;12.00;;;3.70;;
3967;SDS011;9221;42.646;23.380;2024-03-23T05:41:04;11.20;;;3.50;;
3967;SDS011;9221;42.646;23.380;2024-03-23T05:43:30;10.80;;;3.77;;
3967;SDS011;9221;42.646;23.380;2024-03-23T05:45:56;9.87;;;3.40;;
3967;SDS011;9221;42.646;23.380;2024-03-23T05:48:22;13.63;;;3.50;;
3967;SDS011;9221;42.646;23.380;2024-03-23T05:50:51;12.57;;;4.47;;
3967;SDS011;9221;42.646;23.380;2024-03-23T05:53:17;8.90;;;3.43;;
3967;SDS011;9221;42.646;23.380;2024-03-23T05:55:43;14.23;;;3.17;;
3967;SDS011;9221;42.646;23.380;2024-03-23T05:58:09;10.00;;;3.00;;
3967;SDS011;9221;42.646;23.380;2024-03-23T06:00:35;13.83;;;4.83;;
3967;SDS011;9221;42.646;23.380;2024-03-23T06:03:00;14.10;;;4.27;;
3967;SDS011;9221;42.646;23.380;2024-03-23T06:05:26;11.40;;;3.60;;
3967;SDS011;9221;42.646;23.380;2024-03-23T06:07:52;10.27;;;3.70;;
3967;SDS011;9221;42.646;23.380;2024-03-23T06:10:18;9.07;;;2.90;;
3967;SDS011;9221;42.646;23.380;2024-03-23T06:12:45;13.93;;;3.73;;
3967;SDS011;9221;42.646;23.380;2024-03-23T06:15:11;8.80;;;2.60;;
3967;SDS011;9221;42.646;23.380;2024-03-23T06:17:37;10.23;;;3.30;;
3967;SDS011;9221;42.646;23.380;2024-03-23T06:20:03;9.67;;;3.33;;
3967;SDS011;9221;42.646;23.380;2024-03-23T06:22:29;8.17;;;3.30;;
3967;SDS011;9221;42.646;23.380;2024-03-23T06:24:55;7.70;;;3.07;;
3967;SDS011;9221;42.646;23.380;2024-03-23T06:27:20;7.40;;;2.80;;
3967;SDS011;9221;42.646;23.380;2024-03-23T06:29:46;15.40;;;3.87;;
3967;SDS011;9221;42.646;23.380;2024-03-23T06:32:11;7.60;;;3.07;;
3967;SDS011;9221;42.646;23.380;2024-03-23T06:34:37;17.00;;;5.37;;
3967;SDS011;9221;42.646;23.380;2024-03-23T06:37:02;12.73;;;4.73;;
3967;SDS011;9221;42.646;23.380;2024-03-23T06:39:28;12.23;;;4.47;;
3967;SDS011;9221;42.646;23.380;2024-03-23T06:41:54;21.57;;;6.27;;
3967;SDS011;9221;42.646;23.380;2024-03-23T06:44:20;20.40;;;6.17;;
3967;SDS011;9221;42.646;23.380;2024-03-23T06:46:46;22.87;;;5.67;;
3967;SDS011;9221;42.646;23.380;2024-03-23T06:49:13;18.90;;;6.50;;
3967;SDS011;9221;42.646;23.380;2024-03-23T06:51:39;27.20;;;6.87;;
3967;SDS011;9221;42.646;23.380;2024-03-23T06:54:05;15.67;;;5.73;;
3967;SDS011;9221;42.646;23.380;2024-03-23T06:56:30;16.70;;;6.03;;
3967;SDS011;9221;42.646;23.380;2024-03-23T06:58:56;28.43;;;6.33;;
3967;SDS011;9221;42.646;23.380;2024-03-23T07:01:22;21.17;;;6.13;;
3967;SDS011;9221;42.646;23.380;2024-03-23T07:03:48;17.70;;;6.27;;
3967;SDS011;9221;42.646;23.380;2024-03-23T07:06:13;18.37;;;6.30;;
3967;SDS011;9221;42.646;23.380;2024-03-23T07:08:39;15.20;;;6.00;;
3967;SDS011;9221;42.646;23.380;2024-03-23T07:11:04;14.83;;;5.10;;
3967;SDS011;9221;42.646;23.380;2024-03-23T07:13:30;16.73;;;6.10;;
3967;SDS011;9221;42.646;23.380;2024-03-23T07:15:56;17.67;;;6.00;;
3967;SDS011;9221;42.646;23.380;2024-03-23T07:18:22;16.53;;;5.97;;
3967;SDS011;9221;42.646;23.380;2024-03-23T07:20:54;19.73;;;6.60;;
3967;SDS011;9221;42.646;23.380;2024-03-23T07:23:21;19.50;;;5.93;;
3967;SDS011;9221;42.646;23.380;2024-03-23T07:26:00;19.77;;;7.53;;
3967;SDS011;9221;42.646;23.380;2024-03-23T07:28:33;23.40;;;8.27;;
3967;SDS011;9221;42.646;23.380;2024-03-23T07:31:15;21.73;;;6.43;;
3967;SDS011;9221;42.646;23.380;2024-03-23T07:33:41;15.70;;;6.10;;
3967;SDS011;9221;42.646;23.380;2024-03-23T07:36:11;26.37;;;7.13;;
3967;SDS011;9221;42.646;23.380;2024-03-23T07:38:37;22.90;;;7.90;;
3967;SDS011;9221;42.646;23.380;2024-03-23T07:41:06;34.93;;;7.40;;
3967;SDS011;9221;42.646;23.380;2024-03-23T07:43:35;15.63;;;6.60;;
3967;SDS011;9221;42.646;23.380;2024-03-23T07:46:02;15.87;;;6.50;;
3967;SDS011;9221;42.646;23.380;2024-03-23T07:48:29;19.07;;;6.23;;
3967;SDS011;9221;42.646;23.380;2024-03-23T07:53:31;16.60;;;7.17;;
3967;SDS011;9221;42.646;23.380;2024-03-23T07:56:07;20.40;;;6.10;;
3967;SDS011;9221;42.646;23.380;2024-03-23T07:58:34;19.97;;;5.67;;
3967;SDS011;9221;42.646;23.380;2024-03-23T08:01:09;28.90;;;6.10;;
3967;SDS011;9221;42.646;23.380;2024-03-23T08:03:42;26.03;;;7.60;;
3967;SDS011;9221;42.646;23.380;2024-03-23T08:06:12;16.63;;;6.37;;
3967;SDS011;9221;42.646;23.380;2024-03-23T08:08:38;15.93;;;6.00;;
3967;SDS011;9221;42.646;23.380;2024-03-23T08:11:05;17.47;;;6.83;;
3967;SDS011;9221;42.646;23.380;2024-03-23T08:13:31;21.10;;;7.17;;
3967;SDS011;9221;42.646;23.380;2024-03-23T08:15:57;26.20;;;7.90;;
3967;SDS011;9221;42.646;23.380;2024-03-23T08:18:24;22.83;;;7.63;;
3967;SDS011;9221;42.646;23.380;2024-03-23T08:20:58;16.10;;;7.37;;
3967;SDS011;9221;42.646;23.380;2024-03-23T08:23:25;23.60;;;6.83;;
3967;SDS011;9221;42.646;23.380;2024-03-23T08:25:51;36.57;;;7.50;;
3967;SDS011;9221;42.646;23.380;2024-03-23T08:28:18;23.80;;;6.70;;
3967;SDS011;9221;42.646;23.380;2024-03-23T08:30:44;18.17;;;6.20;;
3967;SDS011;9221;42.646;23.380;2024-03-23T08:33:09;25.90;;;6.63;;
3967;SDS011;9221;42.646;23.380;2024-03-23T08:35:35;21.73;;;7.20;;
3967;SDS011;9221;42.646;23.380;2024-03-23T08:38:01;18.50;;;6.67;;
3967;SDS011;9221;42.646;23.380;2024-03-23T08:40:26;16.87;;;7.10;;
3967;SDS011;9221;42.646;23.380;2024-03-23T08:42:52;21.63;;;7.13;;
3967;SDS011;9221;42.646;23.380;2024-03-23T08:45:17;21.90;;;7.77;;
3967;SDS011;9221;42.646;23.380;2024-03-23T08:47:43;21.40;;;7.97;;
3967;SDS011;9221;42.646;23.380;2024-03-23T08:50:08;23.50;;;8.00;;
3967;SDS011;9221;42.646;23.380;2024-03-23T08:52:34;22.00;;;6.60;;
3967;SDS011;9221;42.646;23.380;2024-03-23T08:54:59;19.23;;;6.90;;
3967;SDS011;9221;42.646;23.380;2024-03-23T08:57:25;19.80;;;7.00;;
3967;SDS011;9221;42.646;23.380;2024-03-23T08:59:50;21.80;;;6.90;;
3967;SDS011;9221;42.646;23.380;2024-03-23T09:02:16;24.20;;;6.90;;
3967;SDS011;9221;42.646;23.380;2024-03-23T09:04:41;20.53;;;6.87;;
3967;SDS011;9221;42.646;23.380;2024-03-23T09:07:07;20.17;;;7.03;;
3967;SDS011;9221;42.646;23.380;2024-03-23T09:09:33;17.83;;;6.67;;
3967;SDS011;9221;42.646;23.380;2024-03-23T09:11:58;19.07;;;7.17;;
3967;SDS011;9221;42.646;23.380;2024-03-23T09:14:24;17.20;;;7.07;;
3967;SDS011;9221;42.646;23.380;2024-03-23T09:16:50;18.87;;;6.20;;
3967;SDS011;9221;42.646;23.380;2024-03-23T09:19:16;16.23;;;7.30;;
3967;SDS011;9221;42.646;23.380;2024-03-23T09:21:42;12.80;;;6.07;;
3967;SDS011;9221;42.646;23.380;2024-03-23T09:24:08;21.27;;;6.00;;
3967;SDS011;9221;42.646;23.380;2024-03-23T09:26:33;44.83;;;7.97;;
3967;SDS011;9221;42.646;23.380;2024-03-23T09:28:59;22.33;;;6.97;;
3967;SDS011;9221;42.646;23.380;2024-03-23T09:31:24;19.80;;;5.93;;
3967;SDS011;9221;42.646;23.380;2024-03-23T09:33:50;11.03;;;5.03;;
3967;SDS011;9221;42.646;23.380;2024-03-23T09:36:15;13.53;;;5.23;;
3967;SDS011;9221;42.646;23.380;2024-03-23T09:38:41;15.83;;;6.17;;
3967;SDS011;9221;42.646;23.380;2024-03-23T09:41:07;15.63;;;5.60;;
3967;SDS011;9221;42.646;23.380;2024-03-23T09:43:34;17.93;;;5.93;;
3967;SDS011;9221;42.646;23.380;2024-03-23T09:46:00;19.70;;;6.10;;
3967;SDS011;9221;42.646;23.380;2024-03-23T09:48:27;25.27;;;5.60;;
3967;SDS011;9221;42.646;23.380;2024-03-23T09:50:53;10.93;;;4.67;;
3967;SDS011;9221;42.646;23.380;2024-03-23T09:53:18;12.50;;;5.40;;
3967;SDS011;9221;42.646;23.380;2024-03-23T09:55:44;18.80;;;5.23;;
3967;SDS011;9221;42.646;23.380;2024-03-23T09:58:13;9.90;;;4.43;;
3967;SDS011;9221;42.646;23.380;2024-03-23T10:00:40;12.37;;;5.13;;
3967;SDS011;9221;42.646;23.380;2024-03-23T10:03:05;13.00;;;4.77;;
3967;SDS011;9221;42.646;23.380;2024-03-23T10:05:31;20.30;;;5.43;;
3967;SDS011;9221;42.646;23.380;2024-03-23T10:10:38;12.47;;;4.90;;
3967;SDS011;9221;42.646;23.380;2024-03-23T10:13:04;9.47;;;4.27;;
3967;SDS011;9221;42.646;23.380;2024-03-23T10:15:30;9.30;;;4.03;;
3967;SDS011;9221;42.646;23.380;2024-03-23T10:17:59;12.93;;;4.90;;
3967;SDS011;9221;42.646;23.380;2024-03-23T10:20:53;11.00;;;4.90;;
3967;SDS011;9221;42.646;23.380;2024-03-23T10:23:34;10.63;;;4.33;;
3967;SDS011;9221;42.646;23.380;2024-03-23T10:26:17;11.20;;;4.80;;
3967;SDS011;9221;42.646;23.380;2024-03-23T10:29:01;37.97;;;8.33;;
3967;SDS011;9221;42.646;23.380;2024-03-23T10:31:28;66.57;;;15.80;;
3967;SDS011;9221;42.646;23.380;2024-03-23T10:33:55;14.17;;;5.57;;
3967;SDS011;9221;42.646;23.380;2024-03-23T10:36:24;13.63;;;6.83;;
3967;SDS011;9221;42.646;23.380;2024-03-23T10:38:53;11.77;;;6.00;;
3967;SDS011;9221;42.646;23.380;2024-03-23T10:41:19;18.57;;;6.20;;
3967;SDS011;9221;42.646;23.380;2024-03-23T10:43:45;20.30;;;5.97;;
3967;SDS011;9221;42.646;23.380;2024-03-23T10:46:12;14.17;;;6.10;;
3967;SDS011;9221;42.646;23.380;2024-03-23T10:48:37;13.83;;;5.60;;
3967;SDS011;9221;42.646;23.380;2024-03-23T10:51:03;15.60;;;6.20;;
3967;SDS011;9221;42.646;23.380;2024-03-23T10:53:32;24.80;;;6.93;;
3967;SDS011;9221;42.646;23.380;2024-03-23T10:55:59;20.67;;;6.87;;
3967;SDS011;9221;42.646;23.380;2024-03-23T10:58:32;14.30;;;5.83;;
3967;SDS011;9221;42.646;23.380;2024-03-23T11:01:02;15.47;;;6.37;;
3967;SDS011;9221;42.646;23.380;2024-03-23T11:03:34;12.90;;;5.80;;
3967;SDS011;9221;42.646;23.380;2024-03-23T11:06:06;12.60;;;5.60;;
3967;SDS011;9221;42.646;23.380;2024-03-23T11:08:36;14.83;;;6.47;;
3967;SDS011;9221;42.646;23.380;2024-03-23T11:11:11;11.97;;;6.17;;
3967;SDS011;9221;42.646;23.380;2024-03-23T11:13:50;15.97;;;6.70;;
3967;SDS011;9221;42.646;23.380;2024-03-23T11:16:26;12.00;;;5.03;;
3967;SDS011;9221;42.646;23.380;2024-03-23T11:18:54;15.00;;;6.47;;
3967;SDS011;9221;42.646;23.380;2024-03-23T11:21:58;24.40;;;7.47;;
3967;SDS011;9221;42.646;23.380;2024-03-23T11:24:24;13.63;;;6.00;;
3967;SDS011;9221;42.646;23.380;2024-03-23T11:26:49;16.33;;;6.00;;
3967;SDS011;9221;42.646;23.380;2024-03-23T11:29:15;16.13;;;5.50;;
3967;SDS011;9221;42.646;23.380;2024-03-23T11:31:52;16.70;;;6.93;;
3967;SDS011;9221;42.646;23.380;2024-03-23T11:34:18;17.23;;;6.60;;
3967;SDS011;9221;42.646;23.380;2024-03-23T11:36:45;14.50;;;6.90;;
3967;SDS011;9221;42.646;23.380;2024-03-23T11:39:15;19.30;;;6.40;;
3967;SDS011;9221;42.646;23.380;2024-03-23T11:41:51;15.83;;;5.60;;
3967;SDS011;9221;42.646;23.380;2024-03-23T11:46:47;15.00;;;6.57;;
3967;SDS011;9221;42.646;23.380;2024-03-23T11:49:22;15.73;;;5.90;;
3967;SDS011;9221;42.646;23.380;2024-03-23T11:51:49;13.90;;;7.13;;
3967;SDS011;9221;42.646;23.380;2024-03-23T11:54:15;18.50;;;6.57;;
3967;SDS011;9221;42.646;23.380;2024-03-23T11:56:40;14.43;;;7.87;;
3967;SDS011;9221;42.646;23.380;2024-03-23T11:59:34;13.67;;;6.60;;
3967;SDS011;9221;42.646;23.380;2024-03-23T12:02:10;16.30;;;6.70;;
3967;SDS011;9221;42.646;23.380;2024-03-23T12:04:39;18.63;;;6.30;;
3967;SDS011;9221;42.646;23.380;2024-03-23T12:07:09;13.17;;;5.77;;
3967;SDS011;9221;42.646;23.380;2024-03-23T12:09:35;14.13;;;5.90;;
3967;SDS011;9221;42.646;23.380;2024-03-23T12:14:33;14.43;;;6.33;;
3967;SDS011;9221;42.646;23.380;2024-03-23T12:17:09;13.63;;;5.60;;
3967;SDS011;9221;42.646;23.380;2024-03-23T12:19:38;12.73;;;5.63;;
3967;SDS011;9221;42.646;23.380;2024-03-23T12:22:06;15.80;;;5.10;;
3967;SDS011;9221;42.646;23.380;2024-03-23T12:24:35;17.10;;;6.90;;
3967;SDS011;9221;42.646;23.380;2024-03-23T12:27:02;14.30;;;5.90;;
3967;SDS011;9221;42.646;23.380;2024-03-23T12:29:30;14.83;;;5.57;;
3967;SDS011;9221;42.646;23.380;2024-03-23T12:31:59;18.03;;;5.80;;
3967;SDS011;9221;42.646;23.380;2024-03-23T12:34:26;21.87;;;6.60;;
3967;SDS011;9221;42.646;23.380;2024-03-23T12:36:51;19.37;;;5.53;;
3967;SDS011;9221;42.646;23.380;2024-03-23T12:39:17;12.53;;;6.67;;
3967;SDS011;9221;42.646;23.380;2024-03-23T12:41:43;12.20;;;5.77;;
3967;SDS011;9221;42.646;23.380;2024-03-23T12:44:09;16.43;;;5.60;;
3967;SDS011;9221;42.646;23.380;2024-03-23T12:46:37;15.50;;;5.57;;
3967;SDS011;9221;42.646;23.380;2024-03-23T12:49:03;9.30;;;4.87;;
3967;SDS011;9221;42.646;23.380;2024-03-23T12:51:28;12.20;;;5.93;;
3967;SDS011;9221;42.646;23.380;2024-03-23T12:53:54;21.17;;;5.43;;
3967;SDS011;9221;42.646;23.380;2024-03-23T12:56:19;13.93;;;4.73;;
3967;SDS011;9221;42.646;23.380;2024-03-23T12:58:45;11.30;;;4.80;;
3967;SDS011;9221;42.646;23.380;2024-03-23T13:01:13;13.47;;;5.43;;
3967;SDS011;9221;42.646;23.380;2024-03-23T13:03:39;19.83;;;4.77;;
3967;SDS011;9221;42.646;23.380;2024-03-23T13:06:06;6.80;;;3.20;;
3967;SDS011;9221;42.646;23.380;2024-03-23T13:08:32;12.60;;;3.07;;
3967;SDS011;9221;42.646;23.380;2024-03-23T13:10:58;11.10;;;4.30;;
3967;SDS011;9221;42.646;23.380;2024-03-23T13:13:23;9.23;;;4.77;;
3967;SDS011;9221;42.646;23.380;2024-03-23T13:15:52;9.80;;;4.10;;
3967;SDS011;9221;42.646;23.380;2024-03-23T13:18:17;7.07;;;3.50;;
3967;SDS011;9221;42.646;23.380;2024-03-23T13:20:43;8.27;;;2.87;;
3967;SDS011;9221;42.646;23.380;2024-03-23T13:23:09;5.30;;;2.83;;
3967;SDS011;9221;42.646;23.380;2024-03-23T13:25:34;20.13;;;3.13;;
3967;SDS011;9221;42.646;23.380;2024-03-23T13:28:01;7.60;;;2.83;;
3967;SDS011;9221;42.646;23.380;2024-03-23T13:30:27;9.33;;;3.20;;
3967;SDS011;9221;42.646;23.380;2024-03-23T13:32:52;8.63;;;2.90;;
3967;SDS011;9221;42.646;23.380;2024-03-23T13:35:18;5.17;;;2.20;;
3967;SDS011;9221;42.646;23.380;2024-03-23T13:37:44;9.37;;;2.43;;
3967;SDS011;9221;42.646;23.380;2024-03-23T13:40:09;4.40;;;2.10;;
3967;SDS011;9221;42.646;23.380;2024-03-23T13:42:35;6.00;;;2.73;;
3967;SDS011;9221;42.646;23.380;2024-03-23T13:45:02;4.50;;;2.30;;
3967;SDS011;9221;42.646;23.380;2024-03-23T13:47:28;8.37;;;2.17;;
3967;SDS011;9221;42.646;23.380;2024-03-23T13:49:53;5.40;;;2.40;;
3967;SDS011;9221;42.646;23.380;2024-03-23T13:52:18;6.00;;;2.20;;
3967;SDS011;9221;42.646;23.380;2024-03-23T13:54:47;4.50;;;1.63;;
3967;SDS011;9221;42.646;23.380;2024-03-23T13:57:13;5.27;;;1.40;;
3967;SDS011;9221;42.646;23.380;2024-03-23T13:59:39;3.30;;;1.50;;
3967;SDS011;9221;42.646;23.380;2024-03-23T14:02:04;5.70;;;2.40;;
3967;SDS011;9221;42.646;23.380;2024-03-23T14:04:30;4.00;;;1.63;;
3967;SDS011;9221;42.646;23.380;2024-03-23T14:06:56;7.13;;;1.53;;
3967;SDS011;9221;42.646;23.380;2024-03-23T14:09:21;2.50;;;1.20;;
3967;SDS011;9221;42.646;23.380;2024-03-23T14:11:50;3.80;;;1.73;;
3967;SDS011;9221;42.646;23.380;2024-03-23T14:14:16;3.03;;;1.63;;
3967;SDS011;9221;42.646;23.380;2024-03-23T14:16:42;3.43;;;1.77;;
3967;SDS011;9221;42.646;23.380;2024-03-23T14:19:08;8.20;;;2.23;;
3967;SDS011;9221;42.646;23.380;2024-03-23T14:21:33;4.60;;;2.10;;
3967;SDS011;9221;42.646;23.380;2024-03-23T14:24:01;3.67;;;1.70;;
3967;SDS011;9221;42.646;23.380;2024-03-23T14:26:27;8.27;;;1.90;;
3967;SDS011;9221;42.646;23.380;2024-03-23T14:28:53;3.60;;;1.57;;
3967;SDS011;9221;42.646;23.380;2024-03-23T14:31:19;2.00;;;1.20;;
3967;SDS011;9221;42.646;23.380;2024-03-23T14:33:44;3.33;;;1.27;;
3967;SDS011;9221;42.646;23.380;2024-03-23T14:36:15;3.37;;;1.17;;
3967;SDS011;9221;42.646;23.380;2024-03-23T14:38:42;4.90;;;1.30;;
3967;SDS011;9221;42.646;23.380;2024-03-23T14:41:11;3.17;;;1.00;;
3967;SDS011;9221;42.646;23.380;2024-03-23T14:43:37;3.03;;;1.00;;
3967;SDS011;9221;42.646;23.380;2024-03-23T14:46:12;2.87;;;0.93;;
3967;SDS011;9221;42.646;23.380;2024-03-23T14:48:39;1.50;;;0.77;;
3967;SDS011;9221;42.646;23.380;2024-03-23T14:51:06;1.80;;;0.90;;
3967;SDS011;9221;42.646;23.380;2024-03-23T14:53:36;2.03;;;0.80;;
3967;SDS011;9221;42.646;23.380;2024-03-23T14:56:05;3.50;;;0.90;;
3967;SDS011;9221;42.646;23.380;2024-03-23T14:58:31;1.27;;;0.60;;
3967;SDS011;9221;42.646;23.380;2024-03-23T15:01:04;1.40;;;0.77;;
3967;SDS011;9221;42.646;23.380;2024-03-23T15:03:30;2.13;;;1.07;;
3967;SDS011;9221;42.646;23.380;2024-03-23T15:05:57;2.80;;;1.23;;
3967;SDS011;9221;42.646;23.380;2024-03-23T15:08:24;3.13;;;0.90;;
3967;SDS011;9221;42.646;23.380;2024-03-23T15:10:50;1.10;;;0.70;;
3967;SDS011;9221;42.646;23.380;2024-03-23T15:13:16;3.00;;;1.30;;
3967;SDS011;9221;42.646;23.380;2024-03-23T15:15:41;3.87;;;1.20;;
3967;SDS011;9221;42.646;23.380;2024-03-23T15:18:11;3.80;;;1.47;;
3967;SDS011;9221;42.646;23.380;2024-03-23T15:20:37;1.50;;;0.80;;
3967;SDS011;9221;42.646;23.380;2024-03-23T15:23:03;2.97;;;0.90;;
3967;SDS011;9221;42.646;23.380;2024-03-23T15:25:29;1.73;;;0.90;;
3967;SDS011;9221;42.646;23.380;2024-03-23T15:27:55;1.73;;;0.80;;
3967;SDS011;9221;42.646;23.380;2024-03-23T15:30:22;1.50;;;0.87;;
3967;SDS011;9221;42.646;23.380;2024-03-23T15:32:48;3.23;;;0.83;;
3967;SDS011;9221;42.646;23.380;2024-03-23T15:35:14;4.50;;;1.40;;
3967;SDS011;9221;42.646;23.380;2024-03-23T15:37:39;2.10;;;0.97;;
3967;SDS011;9221;42.646;23.380;2024-03-23T15:40:06;3.03;;;0.90;;
3967;SDS011;9221;42.646;23.380;2024-03-23T15:42:32;4.13;;;1.30;;
3967;SDS011;9221;42.646;23.380;2024-03-23T15:44:57;3.17;;;0.97;;
3967;SDS011;9221;42.646;23.380;2024-03-23T15:47:23;3.53;;;1.50;;
3967;SDS011;9221;42.646;23.380;2024-03-23T15:49:49;3.30;;;1.23;;
3967;SDS011;9221;42.646;23.380;2024-03-23T15:52:15;4.67;;;1.77;;
3967;SDS011;9221;42.646;23.380;2024-03-23T15:54:40;2.60;;;1.20;;
3967;SDS011;9221;42.646;23.380;2024-03-23T15:57:08;5.03;;;1.63;;